VOI4580 MMMY-MMPR
Flight info
| Callsign | VOI4580 |
|---|---|
| Flight time | 1h 12m |
| Altitude | 36000 |
| Route | URTOB1A URTOB DCT OTEKA UT1 KEDMA KEDMA1B |
| Aircraft | A20N/M-SDE2E3FGHIRWXY/LB1 |
Departure
| Time | 2026-04-22 02:21 |
|---|---|
| Airport | Monterrey International Airport (MMMY) |
Arrival
| Time | 2026-04-22 03:33 |
|---|---|
| Airport | Puerto Vallarta International Airport (MMPR) |
| Time | Latitude | Longitude | Altitude | Speed | Heading |
|---|---|---|---|---|---|
| 2026-04-22 01:44 | 25.77912 | -100.11386 | 1285 ft | 0 kts | 211° |
| 2026-04-22 01:45 | 25.77883 | -100.11329 | 1284 ft | 0 kts | 211° |
| 2026-04-22 02:08 | 25.77899 | -100.11318 | 1285 ft | 4 kts | 211° |
| 2026-04-22 02:08 | 25.77921 | -100.11303 | 1285 ft | 4 kts | 217° |
| 2026-04-22 02:09 | 25.77938 | -100.11282 | 1284 ft | 4 kts | 253° |
| 2026-04-22 02:09 | 25.77939 | -100.11254 | 1284 ft | 4 kts | 290° |
| 2026-04-22 02:09 | 25.77930 | -100.11233 | 1287 ft | 4 kts | 301° |
| 2026-04-22 02:09 | 25.77922 | -100.11219 | 1286 ft | 1 kts | 301° |
| 2026-04-22 02:12 | 25.77943 | -100.11258 | 1284 ft | 10 kts | 299° |
| 2026-04-22 02:12 | 25.77986 | -100.11340 | 1284 ft | 14 kts | 302° |
| 2026-04-22 02:12 | 25.78039 | -100.11435 | 1284 ft | 14 kts | 301° |
| 2026-04-22 02:12 | 25.78086 | -100.11521 | 1284 ft | 11 kts | 301° |
| 2026-04-22 02:13 | 25.78124 | -100.11591 | 1284 ft | 11 kts | 302° |
| 2026-04-22 02:13 | 25.78163 | -100.11660 | 1284 ft | 10 kts | 301° |
| 2026-04-22 02:13 | 25.78200 | -100.11729 | 1284 ft | 11 kts | 301° |
| 2026-04-22 02:13 | 25.78239 | -100.11798 | 1284 ft | 10 kts | 304° |
| 2026-04-22 02:14 | 25.78243 | -100.11805 | 1284 ft | 0 kts | 308° |
| 2026-04-22 02:14 | 25.78272 | -100.11804 | 1284 ft | 5 kts | 27° |
| 2026-04-22 02:14 | 25.78299 | -100.11787 | 1284 ft | 5 kts | 30° |
| 2026-04-22 02:15 | 25.78317 | -100.11775 | 1284 ft | 0 kts | 32° |
| 2026-04-22 02:17 | 25.78334 | -100.11764 | 1284 ft | 8 kts | 32° |
| 2026-04-22 02:17 | 25.78393 | -100.11716 | 1284 ft | 11 kts | 60° |
| 2026-04-22 02:18 | 25.78383 | -100.11658 | 1285 ft | 0 kts | 121° |
| 2026-04-22 02:20 | 25.78367 | -100.11628 | 1284 ft | 23 kts | 121° |
| 2026-04-22 02:20 | 25.78161 | -100.11253 | 1284 ft | 91 kts | 121° |
| 2026-04-22 02:20 | 25.77713 | -100.10441 | 1282 ft | 154 kts | 121° |
| 2026-04-22 02:20 | 25.77097 | -100.09335 | 1569 ft | 176 kts | 122° |
| 2026-04-22 02:21 | 25.76416 | -100.08146 | 2058 ft | 189 kts | 123° |
| 2026-04-22 02:21 | 25.75685 | -100.06887 | 2600 ft | 198 kts | 123° |
| 2026-04-22 02:21 | 25.74916 | -100.05566 | 3132 ft | 213 kts | 123° |
| 2026-04-22 02:21 | 25.74050 | -100.04085 | 3566 ft | 244 kts | 123° |
| 2026-04-22 02:22 | 25.73213 | -100.02363 | 4269 ft | 260 kts | 116° |
| 2026-04-22 02:22 | 25.72404 | -100.00543 | 5203 ft | 266 kts | 117° |
| 2026-04-22 02:22 | 25.71550 | -99.98702 | 6195 ft | 271 kts | 117° |
| 2026-04-22 02:22 | 25.70647 | -99.96851 | 7184 ft | 275 kts | 123° |
| 2026-04-22 02:23 | 25.69409 | -99.95227 | 8132 ft | 279 kts | 140° |
| 2026-04-22 02:23 | 25.67712 | -99.94186 | 9050 ft | 282 kts | 165° |
| 2026-04-22 02:23 | 25.65761 | -99.94099 | 9932 ft | 285 kts | 193° |
| 2026-04-22 02:23 | 25.63963 | -99.95076 | 10565 ft | 300 kts | 221° |
| 2026-04-22 02:24 | 25.62649 | -99.96948 | 11057 ft | 317 kts | 239° |
| 2026-04-22 02:24 | 25.61553 | -99.99114 | 11804 ft | 326 kts | 242° |
| 2026-04-22 02:24 | 25.60473 | -100.01307 | 12631 ft | 331 kts | 241° |
| 2026-04-22 02:24 | 25.59348 | -100.03554 | 13479 ft | 336 kts | 241° |
| 2026-04-22 02:25 | 25.58192 | -100.05821 | 14316 ft | 340 kts | 240° |
| 2026-04-22 02:25 | 25.57012 | -100.08111 | 15125 ft | 345 kts | 240° |
| 2026-04-22 02:25 | 25.55810 | -100.10430 | 15909 ft | 349 kts | 240° |
| 2026-04-22 02:25 | 25.54591 | -100.12770 | 16692 ft | 353 kts | 240° |
| 2026-04-22 02:26 | 25.53353 | -100.15145 | 17436 ft | 358 kts | 240° |
| 2026-04-22 02:26 | 25.52101 | -100.17542 | 18135 ft | 362 kts | 240° |
| 2026-04-22 02:26 | 25.50832 | -100.19972 | 18815 ft | 367 kts | 240° |
| 2026-04-22 02:26 | 25.49550 | -100.22424 | 19485 ft | 370 kts | 240° |
| 2026-04-22 02:27 | 25.48249 | -100.24900 | 19894 ft | 373 kts | 240° |
| 2026-04-22 02:27 | 25.46934 | -100.27402 | 19996 ft | 380 kts | 240° |
| 2026-04-22 02:27 | 25.45606 | -100.29944 | 20194 ft | 384 kts | 240° |
| 2026-04-22 02:27 | 25.44267 | -100.32507 | 20871 ft | 385 kts | 240° |
| 2026-04-22 02:28 | 25.42921 | -100.35080 | 21456 ft | 388 kts | 240° |
| 2026-04-22 02:28 | 25.41562 | -100.37675 | 21982 ft | 392 kts | 240° |
| 2026-04-22 02:28 | 25.40189 | -100.40297 | 22454 ft | 396 kts | 240° |
| 2026-04-22 02:28 | 25.38800 | -100.42945 | 22977 ft | 399 kts | 240° |
| 2026-04-22 02:29 | 25.37434 | -100.45634 | 23466 ft | 403 kts | 242° |
| 2026-04-22 02:29 | 25.36147 | -100.48354 | 23913 ft | 406 kts | 243° |
| 2026-04-22 02:29 | 25.34874 | -100.51156 | 24348 ft | 409 kts | 244° |
| 2026-04-22 02:29 | 25.33605 | -100.53991 | 24714 ft | 414 kts | 244° |
| 2026-04-22 02:30 | 25.32328 | -100.56853 | 25157 ft | 416 kts | 244° |
| 2026-04-22 02:30 | 25.31038 | -100.59730 | 25548 ft | 419 kts | 244° |
| 2026-04-22 02:30 | 25.29736 | -100.62615 | 26006 ft | 421 kts | 243° |
| 2026-04-22 02:30 | 25.28420 | -100.65517 | 26453 ft | 422 kts | 243° |
| 2026-04-22 02:31 | 25.27095 | -100.68426 | 26849 ft | 425 kts | 243° |
| 2026-04-22 02:31 | 25.25762 | -100.71347 | 27216 ft | 427 kts | 243° |
| 2026-04-22 02:31 | 25.24418 | -100.74287 | 27594 ft | 430 kts | 243° |
| 2026-04-22 02:31 | 25.23067 | -100.77240 | 27937 ft | 432 kts | 243° |
| 2026-04-22 02:32 | 25.21705 | -100.80216 | 28280 ft | 435 kts | 243° |
| 2026-04-22 02:32 | 25.20336 | -100.83207 | 28619 ft | 437 kts | 243° |
| 2026-04-22 02:32 | 25.18980 | -100.86168 | 28926 ft | 439 kts | 243° |
| 2026-04-22 02:32 | 25.17597 | -100.89185 | 29210 ft | 442 kts | 243° |
| 2026-04-22 02:33 | 25.16203 | -100.92225 | 29503 ft | 445 kts | 243° |
| 2026-04-22 02:33 | 25.14800 | -100.95284 | 29815 ft | 447 kts | 243° |
| 2026-04-22 02:33 | 25.13394 | -100.98346 | 30095 ft | 449 kts | 243° |
| 2026-04-22 02:33 | 25.11975 | -101.01433 | 30397 ft | 451 kts | 243° |
| 2026-04-22 02:34 | 25.10555 | -101.04521 | 30704 ft | 452 kts | 243° |
| 2026-04-22 02:34 | 25.09125 | -101.07629 | 30990 ft | 454 kts | 243° |
| 2026-04-22 02:34 | 25.07690 | -101.10746 | 31273 ft | 456 kts | 243° |
| 2026-04-22 02:34 | 25.06251 | -101.13869 | 31556 ft | 458 kts | 243° |
| 2026-04-22 02:35 | 25.04809 | -101.16997 | 31897 ft | 457 kts | 243° |
| 2026-04-22 02:35 | 25.03369 | -101.20115 | 32287 ft | 456 kts | 243° |
| 2026-04-22 02:35 | 25.01949 | -101.23192 | 32661 ft | 455 kts | 243° |
| 2026-04-22 02:35 | 25.00517 | -101.26292 | 33001 ft | 454 kts | 243° |
| 2026-04-22 02:36 | 24.99081 | -101.29397 | 33273 ft | 455 kts | 243° |
| 2026-04-22 02:36 | 24.97644 | -101.32503 | 33577 ft | 455 kts | 243° |
| 2026-04-22 02:36 | 24.96212 | -101.35598 | 33953 ft | 453 kts | 243° |
| 2026-04-22 02:36 | 24.94780 | -101.38689 | 34278 ft | 452 kts | 243° |
| 2026-04-22 02:37 | 24.93355 | -101.41763 | 34592 ft | 451 kts | 243° |
| 2026-04-22 02:37 | 24.91927 | -101.44841 | 34904 ft | 450 kts | 243° |
| 2026-04-22 02:37 | 24.90503 | -101.47907 | 35211 ft | 449 kts | 243° |
| 2026-04-22 02:37 | 24.89084 | -101.50964 | 35500 ft | 448 kts | 243° |
| 2026-04-22 02:38 | 24.87665 | -101.54015 | 35784 ft | 447 kts | 243° |
| 2026-04-22 02:38 | 24.86248 | -101.57063 | 35972 ft | 447 kts | 243° |
| 2026-04-22 02:38 | 24.84839 | -101.60088 | 35995 ft | 441 kts | 243° |
| 2026-04-22 02:39 | 24.82054 | -101.66066 | 35998 ft | 438 kts | 243° |
| 2026-04-22 02:39 | 24.79269 | -101.72035 | 36005 ft | 439 kts | 243° |
| 2026-04-22 02:40 | 24.76503 | -101.77958 | 36002 ft | 437 kts | 243° |
| 2026-04-22 02:40 | 24.73724 | -101.83900 | 36001 ft | 436 kts | 243° |
| 2026-04-22 02:41 | 24.70949 | -101.89825 | 36000 ft | 435 kts | 243° |
| 2026-04-22 02:41 | 24.68177 | -101.95736 | 36001 ft | 435 kts | 243° |
| 2026-04-22 02:42 | 24.65398 | -102.01656 | 36001 ft | 436 kts | 243° |
| 2026-04-22 02:42 | 24.62611 | -102.07582 | 35999 ft | 436 kts | 243° |
| 2026-04-22 02:43 | 24.59819 | -102.13515 | 36000 ft | 437 kts | 243° |
| 2026-04-22 02:43 | 24.57039 | -102.19413 | 36002 ft | 438 kts | 243° |
| 2026-04-22 02:44 | 24.54237 | -102.25350 | 36001 ft | 437 kts | 243° |
| 2026-04-22 02:44 | 24.51442 | -102.31265 | 35999 ft | 435 kts | 243° |
| 2026-04-22 02:45 | 24.48651 | -102.37164 | 35999 ft | 435 kts | 243° |
| 2026-04-22 02:45 | 24.45859 | -102.43058 | 36002 ft | 435 kts | 243° |
| 2026-04-22 02:46 | 24.43079 | -102.48919 | 36000 ft | 436 kts | 243° |
| 2026-04-22 02:46 | 24.40292 | -102.54786 | 36003 ft | 436 kts | 243° |
| 2026-04-22 02:47 | 24.37485 | -102.60689 | 36002 ft | 436 kts | 242° |
| 2026-04-22 02:47 | 24.34675 | -102.66592 | 36000 ft | 436 kts | 242° |
| 2026-04-22 02:48 | 24.31863 | -102.72490 | 35997 ft | 436 kts | 242° |
| 2026-04-22 02:48 | 24.29051 | -102.78380 | 35997 ft | 436 kts | 242° |
| 2026-04-22 02:49 | 24.26236 | -102.84270 | 36003 ft | 436 kts | 242° |
| 2026-04-22 02:49 | 24.23440 | -102.90114 | 36001 ft | 436 kts | 242° |
| 2026-04-22 02:50 | 24.20624 | -102.95992 | 36002 ft | 436 kts | 242° |
| 2026-04-22 02:50 | 24.17804 | -103.01872 | 36001 ft | 436 kts | 242° |
| 2026-04-22 02:51 | 24.14981 | -103.07750 | 36003 ft | 437 kts | 242° |
| 2026-04-22 02:51 | 24.12144 | -103.13648 | 36003 ft | 438 kts | 242° |
| 2026-04-22 02:52 | 24.09299 | -103.19556 | 36000 ft | 439 kts | 242° |
| 2026-04-22 02:52 | 24.06424 | -103.25443 | 36001 ft | 438 kts | 238° |
| 2026-04-22 02:53 | 24.02527 | -103.30521 | 35997 ft | 438 kts | 219° |
| 2026-04-22 02:53 | 23.97430 | -103.34159 | 36001 ft | 438 kts | 210° |
| 2026-04-22 02:54 | 23.92120 | -103.37346 | 35998 ft | 439 kts | 208° |
| 2026-04-22 02:54 | 23.86734 | -103.40493 | 36003 ft | 439 kts | 208° |
| 2026-04-22 02:55 | 23.81356 | -103.43670 | 36001 ft | 440 kts | 208° |
| 2026-04-22 02:55 | 23.75983 | -103.46875 | 36000 ft | 441 kts | 209° |
| 2026-04-22 02:56 | 23.70606 | -103.50089 | 36000 ft | 440 kts | 209° |
| 2026-04-22 02:56 | 23.65237 | -103.53296 | 36000 ft | 440 kts | 209° |
| 2026-04-22 02:57 | 23.59864 | -103.56500 | 35998 ft | 440 kts | 209° |
| 2026-04-22 02:57 | 23.54490 | -103.59702 | 36001 ft | 440 kts | 209° |
| 2026-04-22 02:58 | 23.49126 | -103.62895 | 36004 ft | 439 kts | 209° |
| 2026-04-22 02:58 | 23.43797 | -103.66066 | 36000 ft | 439 kts | 209° |
| 2026-04-22 02:59 | 23.38422 | -103.69263 | 36002 ft | 441 kts | 209° |
| 2026-04-22 02:59 | 23.33037 | -103.72463 | 35999 ft | 440 kts | 209° |
| 2026-04-22 03:00 | 23.27662 | -103.75653 | 35999 ft | 440 kts | 209° |
| 2026-04-22 03:00 | 23.22284 | -103.78842 | 36001 ft | 440 kts | 209° |
| 2026-04-22 03:01 | 23.16922 | -103.82019 | 36003 ft | 438 kts | 209° |
| 2026-04-22 03:01 | 23.11565 | -103.85190 | 35999 ft | 438 kts | 208° |
| 2026-04-22 03:02 | 23.06192 | -103.88352 | 35998 ft | 440 kts | 208° |
| 2026-04-22 03:02 | 23.00800 | -103.91533 | 36002 ft | 441 kts | 208° |
| 2026-04-22 03:03 | 22.95414 | -103.94717 | 36002 ft | 440 kts | 208° |
| 2026-04-22 03:03 | 22.90037 | -103.97893 | 36001 ft | 439 kts | 208° |
| 2026-04-22 03:04 | 22.84683 | -104.01053 | 35998 ft | 438 kts | 208° |
| 2026-04-22 03:04 | 22.79333 | -104.04207 | 36000 ft | 438 kts | 208° |
| 2026-04-22 03:05 | 22.73957 | -104.07370 | 36002 ft | 442 kts | 208° |
| 2026-04-22 03:05 | 22.68574 | -104.10530 | 35999 ft | 443 kts | 208° |
| 2026-04-22 03:06 | 22.63154 | -104.13707 | 35998 ft | 444 kts | 208° |
| 2026-04-22 03:06 | 22.57721 | -104.16891 | 36002 ft | 445 kts | 208° |
| 2026-04-22 03:07 | 22.52297 | -104.20066 | 35997 ft | 440 kts | 208° |
| 2026-04-22 03:07 | 22.46903 | -104.23222 | 35985 ft | 440 kts | 208° |
| 2026-04-22 03:07 | 22.44220 | -104.24790 | 35594 ft | 437 kts | 208° |
| 2026-04-22 03:08 | 22.41561 | -104.26344 | 35169 ft | 431 kts | 208° |
| 2026-04-22 03:08 | 22.38946 | -104.27872 | 34586 ft | 424 kts | 208° |
| 2026-04-22 03:08 | 22.36360 | -104.29382 | 34014 ft | 421 kts | 208° |
| 2026-04-22 03:08 | 22.33793 | -104.30881 | 33603 ft | 417 kts | 208° |
| 2026-04-22 03:09 | 22.31258 | -104.32360 | 33125 ft | 411 kts | 208° |
| 2026-04-22 03:09 | 22.28759 | -104.33818 | 32505 ft | 406 kts | 208° |
| 2026-04-22 03:09 | 22.26290 | -104.35257 | 31898 ft | 401 kts | 208° |
| 2026-04-22 03:09 | 22.23850 | -104.36680 | 31285 ft | 396 kts | 208° |
| 2026-04-22 03:10 | 22.21432 | -104.38089 | 30704 ft | 394 kts | 208° |
| 2026-04-22 03:10 | 22.19033 | -104.39486 | 30268 ft | 390 kts | 208° |
| 2026-04-22 03:10 | 22.17458 | -104.40404 | 29982 ft | 387 kts | 208° |
| 2026-04-22 03:10 | 22.15099 | -104.41777 | 29527 ft | 384 kts | 208° |
| 2026-04-22 03:11 | 22.12756 | -104.43140 | 29059 ft | 382 kts | 208° |
| 2026-04-22 03:11 | 22.10419 | -104.44500 | 28608 ft | 380 kts | 208° |
| 2026-04-22 03:11 | 22.08095 | -104.45850 | 28172 ft | 378 kts | 208° |
| 2026-04-22 03:11 | 22.05040 | -104.47626 | 27625 ft | 374 kts | 208° |
| 2026-04-22 03:12 | 22.03498 | -104.48522 | 27371 ft | 372 kts | 208° |
| 2026-04-22 03:12 | 21.98269 | -104.51557 | 26518 ft | 363 kts | 208° |
| 2026-04-22 03:12 | 21.96772 | -104.52426 | 26255 ft | 361 kts | 208° |
| 2026-04-22 03:13 | 21.94600 | -104.53686 | 25871 ft | 358 kts | 208° |
| 2026-04-22 03:13 | 21.92421 | -104.54950 | 25490 ft | 355 kts | 208° |
| 2026-04-22 03:13 | 21.90257 | -104.56205 | 25080 ft | 353 kts | 208° |
| 2026-04-22 03:13 | 21.88100 | -104.57455 | 24665 ft | 351 kts | 208° |
| 2026-04-22 03:14 | 21.85955 | -104.58698 | 24262 ft | 349 kts | 208° |
| 2026-04-22 03:14 | 21.83828 | -104.59929 | 23867 ft | 346 kts | 208° |
| 2026-04-22 03:14 | 21.81712 | -104.61154 | 23419 ft | 344 kts | 208° |
| 2026-04-22 03:14 | 21.79610 | -104.62371 | 22969 ft | 342 kts | 208° |
| 2026-04-22 03:15 | 21.77517 | -104.63582 | 22543 ft | 339 kts | 208° |
| 2026-04-22 03:15 | 21.75448 | -104.64778 | 22012 ft | 335 kts | 208° |
| 2026-04-22 03:15 | 21.73401 | -104.65955 | 21426 ft | 333 kts | 208° |
| 2026-04-22 03:15 | 21.71364 | -104.67115 | 20851 ft | 329 kts | 208° |
| 2026-04-22 03:16 | 21.69354 | -104.68257 | 20307 ft | 326 kts | 208° |
| 2026-04-22 03:16 | 21.67373 | -104.69383 | 20035 ft | 325 kts | 208° |
| 2026-04-22 03:16 | 21.65370 | -104.70521 | 19927 ft | 326 kts | 208° |
| 2026-04-22 03:16 | 21.63352 | -104.71651 | 19804 ft | 327 kts | 205° |
| 2026-04-22 03:17 | 21.61216 | -104.72474 | 19681 ft | 326 kts | 199° |
| 2026-04-22 03:17 | 21.59088 | -104.73317 | 19556 ft | 325 kts | 204° |
| 2026-04-22 03:17 | 21.57064 | -104.74394 | 19400 ft | 325 kts | 208° |
| 2026-04-22 03:17 | 21.55084 | -104.75562 | 19178 ft | 324 kts | 210° |
| 2026-04-22 03:18 | 21.53138 | -104.76785 | 18954 ft | 323 kts | 211° |
| 2026-04-22 03:18 | 21.51220 | -104.78033 | 18728 ft | 322 kts | 212° |
| 2026-04-22 03:18 | 21.49313 | -104.79293 | 18504 ft | 321 kts | 212° |
| 2026-04-22 03:18 | 21.47417 | -104.80550 | 18275 ft | 320 kts | 212° |
| 2026-04-22 03:19 | 21.45530 | -104.81798 | 18052 ft | 319 kts | 212° |
| 2026-04-22 03:19 | 21.43639 | -104.83032 | 17821 ft | 317 kts | 209° |
| 2026-04-22 03:19 | 21.41654 | -104.84055 | 17573 ft | 316 kts | 204° |
| 2026-04-22 03:19 | 21.39640 | -104.84997 | 17322 ft | 315 kts | 203° |
| 2026-04-22 03:20 | 21.37627 | -104.85910 | 17072 ft | 314 kts | 203° |
| 2026-04-22 03:20 | 21.35679 | -104.86952 | 16819 ft | 312 kts | 213° |
| 2026-04-22 03:20 | 21.33866 | -104.88225 | 16572 ft | 311 kts | 209° |
| 2026-04-22 03:20 | 21.31923 | -104.89230 | 16294 ft | 310 kts | 200° |
| 2026-04-22 03:21 | 21.29892 | -104.89992 | 16041 ft | 309 kts | 197° |
| 2026-04-22 03:21 | 21.27831 | -104.90616 | 15789 ft | 307 kts | 195° |
| 2026-04-22 03:21 | 21.25759 | -104.91182 | 15471 ft | 307 kts | 194° |
| 2026-04-22 03:21 | 21.23685 | -104.91713 | 15073 ft | 306 kts | 193° |
| 2026-04-22 03:22 | 21.21619 | -104.92223 | 14666 ft | 304 kts | 193° |
| 2026-04-22 03:22 | 21.19563 | -104.92726 | 14219 ft | 303 kts | 193° |
| 2026-04-22 03:22 | 21.17508 | -104.93231 | 13771 ft | 303 kts | 193° |
| 2026-04-22 03:22 | 21.15457 | -104.93738 | 13322 ft | 302 kts | 193° |
| 2026-04-22 03:23 | 21.13416 | -104.94246 | 12870 ft | 301 kts | 193° |
| 2026-04-22 03:23 | 21.11403 | -104.94749 | 12399 ft | 300 kts | 193° |
| 2026-04-22 03:23 | 21.09395 | -104.95252 | 11918 ft | 293 kts | 193° |
| 2026-04-22 03:23 | 21.07429 | -104.95746 | 11438 ft | 289 kts | 194° |
| 2026-04-22 03:24 | 21.05489 | -104.96292 | 10966 ft | 287 kts | 196° |
| 2026-04-22 03:24 | 21.03581 | -104.96901 | 10490 ft | 285 kts | 198° |
| 2026-04-22 03:24 | 21.01704 | -104.97538 | 10022 ft | 280 kts | 198° |
| 2026-04-22 03:24 | 20.99871 | -104.98175 | 9532 ft | 272 kts | 198° |
| 2026-04-22 03:25 | 20.98125 | -104.98784 | 9045 ft | 256 kts | 198° |
| 2026-04-22 03:25 | 20.96483 | -104.99354 | 8608 ft | 239 kts | 198° |
| 2026-04-22 03:25 | 20.94950 | -104.99879 | 8165 ft | 225 kts | 198° |
| 2026-04-22 03:25 | 20.93492 | -105.00373 | 7705 ft | 214 kts | 198° |
| 2026-04-22 03:26 | 20.92098 | -105.00845 | 7241 ft | 206 kts | 198° |
| 2026-04-22 03:26 | 20.90757 | -105.01300 | 6780 ft | 200 kts | 198° |
| 2026-04-22 03:26 | 20.89442 | -105.01749 | 6334 ft | 198 kts | 199° |
| 2026-04-22 03:26 | 20.88210 | -105.02373 | 5881 ft | 196 kts | 217° |
| 2026-04-22 03:27 | 20.87204 | -105.03341 | 5433 ft | 195 kts | 226° |
| 2026-04-22 03:27 | 20.86291 | -105.04380 | 4989 ft | 193 kts | 227° |
| 2026-04-22 03:27 | 20.85388 | -105.05433 | 4549 ft | 192 kts | 228° |
| 2026-04-22 03:27 | 20.84487 | -105.06482 | 4090 ft | 191 kts | 227° |
| 2026-04-22 03:28 | 20.83589 | -105.07522 | 3635 ft | 189 kts | 227° |
| 2026-04-22 03:28 | 20.82696 | -105.08552 | 3187 ft | 188 kts | 227° |
| 2026-04-22 03:28 | 20.81808 | -105.09574 | 2825 ft | 187 kts | 227° |
| 2026-04-22 03:28 | 20.80924 | -105.10591 | 2737 ft | 187 kts | 227° |
| 2026-04-22 03:29 | 20.80057 | -105.11587 | 2692 ft | 175 kts | 227° |
| 2026-04-22 03:29 | 20.79255 | -105.12508 | 2470 ft | 164 kts | 227° |
| 2026-04-22 03:29 | 20.78491 | -105.13385 | 2076 ft | 160 kts | 227° |
| 2026-04-22 03:29 | 20.77728 | -105.14262 | 1715 ft | 162 kts | 227° |
| 2026-04-22 03:30 | 20.76957 | -105.15147 | 1634 ft | 164 kts | 227° |
| 2026-04-22 03:30 | 20.76182 | -105.16037 | 1623 ft | 163 kts | 227° |
| 2026-04-22 03:30 | 20.75418 | -105.16914 | 1622 ft | 163 kts | 227° |
| 2026-04-22 03:30 | 20.74644 | -105.17802 | 1618 ft | 163 kts | 227° |
| 2026-04-22 03:31 | 20.73870 | -105.18689 | 1621 ft | 163 kts | 226° |
| 2026-04-22 03:31 | 20.73092 | -105.19576 | 1403 ft | 165 kts | 227° |
| 2026-04-22 03:31 | 20.72332 | -105.20449 | 1103 ft | 153 kts | 229° |
| 2026-04-22 03:31 | 20.71672 | -105.21272 | 906 ft | 141 kts | 229° |
| 2026-04-22 03:32 | 20.71001 | -105.22023 | 673 ft | 139 kts | 225° |
| 2026-04-22 03:32 | 20.70347 | -105.22780 | 535 ft | 139 kts | 230° |
| 2026-04-22 03:32 | 20.69697 | -105.23540 | 352 ft | 139 kts | 221° |
| 2026-04-22 03:32 | 20.69016 | -105.24263 | 86 ft | 137 kts | 229° |
| 2026-04-22 03:33 | 20.68414 | -105.24957 | 31 ft | 99 kts | 227° |
| 2026-04-22 03:33 | 20.68137 | -105.25272 | 33 ft | 26 kts | 227° |
| 2026-04-22 03:33 | 20.68071 | -105.25344 | 33 ft | 21 kts | 224° |
| 2026-04-22 03:33 | 20.68024 | -105.25340 | 33 ft | 6 kts | 124° |
| 2026-04-22 03:34 | 20.67998 | -105.25307 | 31 ft | 6 kts | 134° |
| 2026-04-22 03:34 | 20.67970 | -105.25278 | 30 ft | 6 kts | 137° |
| 2026-04-22 03:34 | 20.67958 | -105.25266 | 32 ft | 0 kts | 135° |
| 2026-04-22 03:34 | 20.67949 | -105.25240 | 32 ft | 9 kts | 90° |
| 2026-04-22 03:35 | 20.67983 | -105.25187 | 31 ft | 9 kts | 46° |
| 2026-04-22 03:35 | 20.68024 | -105.25140 | 32 ft | 9 kts | 47° |
| 2026-04-22 03:35 | 20.68066 | -105.25091 | 32 ft | 9 kts | 47° |
| 2026-04-22 03:35 | 20.68082 | -105.25036 | 32 ft | 8 kts | 116° |
| 2026-04-22 03:36 | 20.68046 | -105.24994 | 32 ft | 8 kts | 137° |
| 2026-04-22 03:36 | 20.68007 | -105.24954 | 32 ft | 8 kts | 137° |
| 2026-04-22 03:36 | 20.67980 | -105.24907 | 32 ft | 7 kts | 80° |
| 2026-04-22 03:36 | 20.67996 | -105.24858 | 32 ft | 4 kts | 95° |
| 2026-04-22 03:37 | 20.67982 | -105.24830 | 32 ft | 4 kts | 117° |
| 2026-04-22 03:37 | 20.67971 | -105.24823 | 32 ft | 1 kts | 168° |
| 2026-04-22 03:37 | 20.67961 | -105.24827 | 32 ft | 5 kts | 202° |
| 2026-04-22 03:37 | 20.67942 | -105.24842 | 32 ft | 2 kts | 225° |
| 2026-04-22 03:38 | 20.67930 | -105.24855 | 32 ft | 0 kts | 226° |